Time;durP1;ratioP1;P1;durP2;ratioP2;P2;SDS_P1;SDS_P2;PMS_P1;PMS_P2;Temp;Humidity;BMP_temperature;BMP_pressure;BME280_temperature;BME280_humidity;BME280_pressure;Samples;Min_cycle;Max_cycle;Signal;HPM_P1;HPM_P2
2023/01/27 00:02:41;;;;;;;21.30;6.90;;;6.80;53.70;;;;;;6345429;28;20106;-68
2023/01/27 00:06:10;;;;;;;16.02;6.50;;;6.70;54.00;;;;;;6346417;28;20019;-68
2023/01/27 00:09:12;;;;;;;20.15;6.38;;;6.70;53.80;;;;;;6344970;28;20501;-70
2023/01/27 00:15:43;;;;;;;17.48;6.57;;;6.60;54.10;;;;;;6346514;28;20451;-68
2023/01/27 00:18:44;;;;;;;19.10;7.63;;;6.60;54.80;;;;;;6345815;28;20034;-70
2023/01/27 00:25:05;;;;;;;14.50;7.18;;;6.50;54.30;;;;;;6346261;28;20020;-69
2023/01/27 00:28:07;;;;;;;20.75;7.05;;;6.50;54.30;;;;;;6345496;28;20447;-71
2023/01/27 00:34:32;;;;;;;15.68;6.00;;;6.40;54.40;;;;;;6346182;28;20024;-71
2023/01/27 00:37:33;;;;;;;17.67;6.35;;;6.40;54.60;;;;;;6346128;28;20031;-70
2023/01/27 00:40:34;;;;;;;14.38;6.35;;;6.40;54.60;;;;;;6347820;28;20032;-70
2023/01/27 00:43:35;;;;;;;18.42;6.82;;;6.40;54.50;;;;;;6350993;28;20031;-68
2023/01/27 00:46:36;;;;;;;19.27;6.22;;;6.30;54.50;;;;;;6348724;28;20042;-70
2023/01/27 00:49:38;;;;;;;14.45;6.10;;;6.30;54.50;;;;;;6349154;28;20024;-71
2023/01/27 00:52:39;;;;;;;15.68;6.60;;;6.30;54.50;;;;;;6348920;28;20034;-69
2023/01/27 00:55:40;;;;;;;16.30;7.35;;;6.30;54.60;;;;;;6349454;28;20032;-69
2023/01/27 00:58:41;;;;;;;22.02;7.75;;;6.20;54.60;;;;;;6349077;28;20031;-69
2023/01/27 01:01:42;;;;;;;16.77;7.55;;;6.30;54.70;;;;;;6350662;28;20088;-68
2023/01/27 01:04:46;;;;;;;14.93;7.93;;;6.30;54.60;;;;;;6349014;28;20027;-69
2023/01/27 01:07:46;;;;;;;19.17;6.75;;;6.30;54.60;;;;;;6349198;28;20057;-68
2023/01/27 01:10:47;;;;;;;24.63;6.63;;;6.30;54.60;;;;;;6349776;28;20036;-69
2023/01/27 01:13:49;;;;;;;19.98;6.85;;;6.30;54.60;;;;;;6326182;28;20433;-69
2023/01/27 01:16:51;;;;;;;17.73;8.23;;;6.30;54.60;;;;;;6325194;28;20073;-69
2023/01/27 01:19:51;;;;;;;16.55;6.22;;;6.20;54.60;;;;;;6323810;28;20472;-68
2023/01/27 01:22:52;;;;;;;19.77;5.70;;;6.20;54.70;;;;;;6340357;28;20111;-69
2023/01/27 01:25:55;;;;;;;27.95;7.35;;;6.20;54.70;;;;;;6350735;28;20031;-70
2023/01/27 01:28:56;;;;;;;18.33;7.20;;;6.20;54.70;;;;;;6348356;28;20032;-69
2023/01/27 01:31:57;;;;;;;16.30;6.93;;;6.20;54.70;;;;;;6348170;28;20039;-70
2023/01/27 01:34:58;;;;;;;9.55;5.13;;;6.20;54.70;;;;;;6348357;28;20027;-69
2023/01/27 01:37:59;;;;;;;18.48;7.22;;;6.20;54.80;;;;;;6349484;28;20059;-69
2023/01/27 01:41:00;;;;;;;19.95;7.45;;;6.10;54.80;;;;;;6349470;28;20032;-68
2023/01/27 01:44:21;;;;;;;15.48;6.53;;;6.10;54.80;;;;;;6347939;28;20028;-69
2023/01/27 01:47:22;;;;;;;26.85;7.55;;;6.10;54.90;;;;;;6347885;28;20035;-69
2023/01/27 01:50:23;;;;;;;16.80;7.35;;;6.10;54.90;;;;;;6347279;28;20122;-68
2023/01/27 01:53:31;;;;;;;30.20;8.32;;;6.10;55.00;;;;;;6348776;28;20023;-69
2023/01/27 01:56:41;;;;;;;20.08;7.28;;;6.10;55.00;;;;;;6348075;28;20032;-69
2023/01/27 01:59:49;;;;;;;23.13;6.57;;;6.10;55.00;;;;;;6347466;28;20035;-68
2023/01/27 02:02:50;;;;;;;19.02;7.00;;;6.10;55.10;;;;;;6347805;28;20031;-71
2023/01/27 02:05:53;;;;;;;14.30;6.22;;;6.10;55.10;;;;;;6344566;28;20088;-69
2023/01/27 02:08:54;;;;;;;14.68;7.85;;;6.00;55.10;;;;;;6348263;28;20031;-69
2023/01/27 02:11:57;;;;;;;21.20;6.72;;;6.10;55.10;;;;;;6347499;28;20046;-68
2023/01/27 02:14:58;;;;;;;20.55;7.40;;;6.10;55.10;;;;;;6347504;28;20034;-69
2023/01/27 02:18:00;;;;;;;23.15;7.20;;;6.20;55.00;;;;;;6347240;28;20032;-68
2023/01/27 02:21:01;;;;;;;17.55;6.90;;;6.20;55.00;;;;;;6346927;28;20039;-68
2023/01/27 02:24:11;;;;;;;18.83;6.57;;;6.20;55.00;;;;;;6348623;28;20475;-68
2023/01/27 02:27:13;;;;;;;27.70;8.07;;;6.10;54.90;;;;;;6347258;28;20076;-68
2023/01/27 02:30:14;;;;;;;17.25;7.38;;;6.10;54.80;;;;;;6346815;28;20027;-68
2023/01/27 02:33:16;;;;;;;20.92;6.88;;;6.10;54.90;;;;;;6346886;28;20027;-68
2023/01/27 02:36:17;;;;;;;16.58;6.72;;;6.20;54.90;;;;;;6329664;28;20118;-68
2023/01/27 02:39:22;;;;;;;16.70;6.93;;;6.20;54.80;;;;;;6347878;28;20098;-70
2023/01/27 02:42:24;;;;;;;15.65;5.90;;;6.20;54.80;;;;;;6346983;28;20115;-68
2023/01/27 02:45:25;;;;;;;14.70;6.80;;;6.20;54.70;;;;;;6346097;28;20038;-69
2023/01/27 02:48:27;;;;;;;16.45;7.47;;;6.20;54.60;;;;;;6329178;28;20110;-67
2023/01/27 02:51:29;;;;;;;20.70;7.57;;;6.20;54.60;;;;;;6346642;28;20110;-69
2023/01/27 02:54:31;;;;;;;16.25;5.97;;;6.20;54.70;;;;;;6316636;28;20032;-69
2023/01/27 02:57:35;;;;;;;15.52;6.95;;;6.10;54.60;;;;;;6321195;28;20051;-70
2023/01/27 03:01:06;;;;;;;19.00;8.00;;;6.10;54.60;;;;;;6257018;28;20037;-70
2023/01/27 03:04:10;;;;;;;18.40;6.35;;;6.10;54.80;;;;;;6241434;28;20106;-70
2023/01/27 03:07:12;;;;;;;19.63;8.25;;;6.10;54.80;;;;;;6277605;28;20028;-69
2023/01/27 03:10:13;;;;;;;15.82;6.78;;;6.10;54.80;;;;;;6276989;28;20055;-67
2023/01/27 03:13:15;;;;;;;21.27;7.85;;;6.80;55.10;;;;;;6277369;28;20158;-67
2023/01/27 03:19:35;;;;;;;14.23;6.22;;;6.10;54.70;;;;;;6312394;23;20054;-70
2023/01/27 03:22:37;;;;;;;16.92;6.70;;;6.10;54.80;;;;;;6303703;28;20124;-69
2023/01/27 03:25:46;;;;;;;17.90;6.80;;;6.10;54.80;;;;;;6337631;28;20105;-69
2023/01/27 03:29:53;;;;;;;17.20;7.03;;;6.00;54.80;;;;;;6337341;28;20035;-69
2023/01/27 03:32:11;;;;;;;21.55;7.38;;;6.00;54.90;;;;;;6320601;28;20097;-68
2023/01/27 03:35:14;;;;;;;15.60;6.85;;;6.00;54.90;;;;;;6337550;28;20039;-67
2023/01/27 03:48:19;;;;;;;24.33;7.32;;;6.10;54.80;;;;;;6341899;28;20036;-68
2023/01/27 03:51:22;;;;;;;18.60;7.10;;;6.00;54.70;;;;;;6326667;28;20032;-68
2023/01/27 03:54:23;;;;;;;19.60;8.23;;;6.00;54.70;;;;;;6321409;28;20088;-69
2023/01/27 03:57:26;;;;;;;14.73;7.07;;;6.00;54.70;;;;;;6321194;28;20028;-69
2023/01/27 04:00:27;;;;;;;15.07;7.15;;;6.00;54.80;;;;;;6320453;28;20047;-69
2023/01/27 04:07:02;;;;;;;17.50;7.03;;;6.00;54.80;;;;;;6296407;28;20032;-72
2023/01/27 04:10:04;;;;;;;19.05;7.25;;;5.90;54.80;;;;;;6295755;28;20190;-70
2023/01/27 04:13:04;;;;;;;16.17;7.32;;;5.90;54.90;;;;;;6296080;28;20113;-67
2023/01/27 04:16:05;;;;;;;15.38;6.68;;;5.90;54.90;;;;;;6300032;28;20028;-69
2023/01/27 04:19:09;;;;;;;22.55;7.72;;;5.90;54.80;;;;;;6300904;28;20044;-68
2023/01/27 04:22:11;;;;;;;16.33;6.50;;;5.90;54.90;;;;;;6305410;28;20024;-69
2023/01/27 04:25:12;;;;;;;14.48;6.03;;;5.90;55.00;;;;;;6325733;28;20028;-68
2023/01/27 04:28:13;;;;;;;16.33;7.22;;;5.90;55.00;;;;;;6324908;28;20080;-70
2023/01/27 04:31:14;;;;;;;17.17;6.72;;;5.90;55.00;;;;;;6326051;28;20084;-68
2023/01/27 04:34:15;;;;;;;19.45;8.88;;;5.90;54.90;;;;;;6325906;28;20035;-68
2023/01/27 04:37:16;;;;;;;12.85;5.93;;;5.90;54.90;;;;;;6325666;28;20063;-68
2023/01/27 04:40:18;;;;;;;18.25;7.03;;;5.80;54.90;;;;;;6323969;28;20214;-70
2023/01/27 04:43:19;;;;;;;23.83;6.82;;;5.80;55.00;;;;;;6341224;28;20032;-69
2023/01/27 04:46:21;;;;;;;15.70;6.88;;;5.80;55.00;;;;;;6325716;28;20047;-67
2023/01/27 04:49:22;;;;;;;16.52;7.57;;;5.80;55.00;;;;;;6340822;28;20032;-69
2023/01/27 04:52:23;;;;;;;14.52;7.10;;;5.80;55.00;;;;;;6325276;28;20032;-70
2023/01/27 04:55:24;;;;;;;19.10;7.75;;;5.80;55.00;;;;;;6325278;28;20031;-67
2023/01/27 04:58:25;;;;;;;16.80;7.47;;;5.80;55.00;;;;;;6322989;28;20044;-69
2023/01/27 05:01:26;;;;;;;17.15;7.10;;;5.70;55.00;;;;;;6323676;28;20040;-69
2023/01/27 05:04:27;;;;;;;19.02;8.15;;;5.70;55.30;;;;;;6324670;28;20472;-68
2023/01/27 05:07:28;;;;;;;12.90;6.03;;;5.70;55.40;;;;;;6324528;28;20020;-69
2023/01/27 05:10:29;;;;;;;19.25;8.00;;;5.70;55.40;;;;;;6324379;28;20389;-68
2023/01/27 05:13:30;;;;;;;21.65;7.85;;;5.70;55.40;;;;;;6323859;28;20028;-69
2023/01/27 05:16:31;;;;;;;14.45;6.85;;;5.70;55.30;;;;;;6323646;28;20369;-68
2023/01/27 05:19:31;;;;;;;18.80;7.30;;;5.80;55.40;;;;;;6324487;28;20398;-71
2023/01/27 05:22:32;;;;;;;12.50;5.95;;;5.80;55.30;;;;;;6324666;28;20456;-69
2023/01/27 05:25:33;;;;;;;19.30;8.70;;;5.80;55.20;;;;;;6324446;28;20085;-69
2023/01/27 05:28:35;;;;;;;19.00;7.38;;;5.80;55.10;;;;;;6324049;28;20028;-69
2023/01/27 05:31:36;;;;;;;18.55;7.28;;;5.80;55.20;;;;;;6323241;28;20430;-70
2023/01/27 05:34:37;;;;;;;20.55;7.80;;;5.80;55.40;;;;;;6324588;28;20119;-70
2023/01/27 05:37:37;;;;;;;19.35;6.82;;;5.70;55.30;;;;;;6324288;28;20032;-69
2023/01/27 05:40:38;;;;;;;16.90;6.90;;;5.70;55.30;;;;;;6324187;28;20392;-67
2023/01/27 05:43:41;;;;;;;20.73;7.38;;;5.70;55.30;;;;;;6323748;28;20030;-67
2023/01/27 05:46:42;;;;;;;22.17;8.13;;;5.70;55.40;;;;;;6323925;28;20111;-70
2023/01/27 05:49:43;;;;;;;21.33;7.20;;;5.70;55.40;;;;;;6323523;28;20024;-70
2023/01/27 05:52:44;;;;;;;16.15;6.13;;;5.60;55.50;;;;;;6323625;28;20088;-69
2023/01/27 05:55:45;;;;;;;16.15;6.55;;;5.60;55.60;;;;;;6323166;28;20032;-68
2023/01/27 05:58:46;;;;;;;17.92;8.93;;;5.60;55.60;;;;;;6323036;28;20027;-69
2023/01/27 06:01:46;;;;;;;16.45;7.80;;;5.60;55.60;;;;;;6323775;28;20106;-69
2023/01/27 06:04:47;;;;;;;22.88;8.23;;;5.50;55.60;;;;;;6322564;28;20501;-69
2023/01/27 06:07:48;;;;;;;17.30;7.93;;;5.60;55.70;;;;;;6323434;28;20024;-68
2023/01/27 06:10:50;;;;;;;23.20;7.57;;;5.50;55.60;;;;;;6325152;28;20024;-68
2023/01/27 06:13:53;;;;;;;21.25;7.90;;;5.60;55.60;;;;;;6329278;28;20078;-70
2023/01/27 06:16:53;;;;;;;18.45;8.00;;;5.60;55.70;;;;;;6324062;28;20089;-68
2023/01/27 06:19:54;;;;;;;20.25;8.75;;;5.60;55.60;;;;;;6322823;28;20035;-70
2023/01/27 06:22:55;;;;;;;15.95;7.50;;;5.70;55.60;;;;;;6321590;28;20046;-69
2023/01/27 06:26:01;;;;;;;33.85;8.23;;;5.70;55.40;;;;;;6323289;28;20495;-69
2023/01/27 06:29:02;;;;;;;19.13;7.47;;;5.60;55.40;;;;;;6322711;28;20025;-72
2023/01/27 06:32:03;;;;;;;22.00;9.50;;;5.60;55.50;;;;;;6322765;28;20043;-69
2023/01/27 06:35:04;;;;;;;17.58;8.00;;;5.60;55.50;;;;;;6322784;28;20035;-68
2023/01/27 06:38:08;;;;;;;18.55;8.38;;;5.60;55.50;;;;;;6321730;28;20103;-72
2023/01/27 06:41:09;;;;;;;16.52;7.25;;;5.70;55.50;;;;;;6304379;28;20028;-69
2023/01/27 06:44:10;;;;;;;29.05;8.73;;;5.70;55.40;;;;;;6322432;28;20032;-70
2023/01/27 06:47:11;;;;;;;17.25;7.15;;;5.80;55.30;;;;;;6321140;28;20020;-69
2023/01/27 06:50:13;;;;;;;17.50;8.10;;;5.80;55.10;;;;;;6320470;28;20430;-69
2023/01/27 06:53:14;;;;;;;17.98;6.65;;;5.70;55.10;;;;;;6321176;28;20143;-70
2023/01/27 06:56:15;;;;;;;23.90;7.47;;;5.70;55.20;;;;;;6321163;28;20036;-69
2023/01/27 06:59:16;;;;;;;17.33;7.63;;;5.80;55.20;;;;;;6325103;28;20494;-68
2023/01/27 07:02:17;;;;;;;23.58;8.05;;;5.80;55.10;;;;;;6304012;28;20032;-68
2023/01/27 07:05:19;;;;;;;21.13;8.85;;;5.80;55.00;;;;;;6304896;28;20024;-71
2023/01/27 07:08:20;;;;;;;24.27;7.93;;;5.70;55.00;;;;;;6337982;28;20697;-69
2023/01/27 07:11:22;;;;;;;21.55;9.45;;;5.70;55.00;;;;;;6320954;28;20085;-70
2023/01/27 07:14:23;;;;;;;23.00;9.75;;;5.80;55.10;;;;;;6303888;28;20036;-70
2023/01/27 07:17:25;;;;;;;19.60;8.77;;;5.70;55.00;;;;;;6337187;28;20240;-69
2023/01/27 07:20:27;;;;;;;21.55;8.52;;;5.80;55.10;;;;;;6320115;28;20032;-69
2023/01/27 07:23:28;;;;;;;16.20;7.93;;;5.80;55.10;;;;;;6320228;28;20040;-68
2023/01/27 07:26:30;;;;;;;25.17;8.05;;;5.80;54.90;;;;;;6320526;28;20032;-70
2023/01/27 07:29:31;;;;;;;17.55;7.35;;;5.80;54.80;;;;;;6319759;28;20464;-70
2023/01/27 07:32:31;;;;;;;27.40;9.00;;;5.90;54.80;;;;;;6320757;28;20074;-69
2023/01/27 07:35:34;;;;;;;21.42;8.45;;;5.80;54.70;;;;;;6320105;28;20036;-69
2023/01/27 07:38:34;;;;;;;15.98;7.90;;;5.80;54.80;;;;;;6330354;22;20051;-68
2023/01/27 07:41:35;;;;;;;19.52;7.28;;;5.80;54.80;;;;;;6295969;28;20020;-70
2023/01/27 07:44:36;;;;;;;18.02;8.25;;;5.80;54.90;;;;;;6277988;28;20040;-69
2023/01/27 07:47:37;;;;;;;22.20;7.85;;;5.80;55.00;;;;;;6296301;28;20052;-68
2023/01/27 07:50:42;;;;;;;23.58;8.05;;;5.80;54.80;;;;;;6295827;28;20361;-69
2023/01/27 07:53:43;;;;;;;24.30;9.48;;;5.70;54.80;;;;;;6296190;28;20400;-71
2023/01/27 07:56:44;;;;;;;17.80;8.45;;;5.70;54.90;;;;;;6296041;28;20040;-68
2023/01/27 07:59:45;;;;;;;20.58;7.63;;;5.70;54.90;;;;;;6295967;28;20028;-69
2023/01/27 08:02:53;;;;;;;25.85;8.85;;;5.70;55.00;;;;;;6276725;28;20117;-69
2023/01/27 08:05:54;;;;;;;18.40;7.28;;;5.80;55.00;;;;;;6295904;28;20020;-69
2023/01/27 08:08:55;;;;;;;23.08;9.27;;;5.80;54.90;;;;;;6295470;28;20047;-70
2023/01/27 08:11:56;;;;;;;17.95;8.68;;;5.80;54.90;;;;;;6294492;28;20073;-69
2023/01/27 08:15:00;;;;;;;22.77;8.73;;;5.80;55.50;;;;;;6277629;28;20511;-68
2023/01/27 08:18:01;;;;;;;24.23;9.23;;;5.80;54.80;;;;;;6277396;28;20025;-69
2023/01/27 08:21:08;;;;;;;20.35;7.53;;;5.80;54.70;;;;;;6277630;28;20024;-69
2023/01/27 08:24:11;;;;;;;21.55;8.13;;;5.80;54.70;;;;;;6277721;28;20490;-69
2023/01/27 08:27:12;;;;;;;19.00;8.25;;;5.90;54.70;;;;;;6277815;28;20346;-68
2023/01/27 08:30:17;;;;;;;20.15;6.88;;;5.90;54.70;;;;;;6277545;28;20488;-70
2023/01/27 08:33:21;;;;;;;25.13;9.00;;;5.90;54.70;;;;;;6264824;28;20025;-70
2023/01/27 08:36:23;;;;;;;18.45;8.07;;;5.90;54.70;;;;;;6280493;28;20029;-69
2023/01/27 08:39:24;;;;;;;21.48;8.70;;;5.90;54.70;;;;;;6276948;28;20035;-70
2023/01/27 08:42:26;;;;;;;17.58;7.82;;;6.00;54.60;;;;;;6260402;28;20028;-71
2023/01/27 08:45:27;;;;;;;15.95;8.32;;;6.00;54.60;;;;;;6277307;28;20025;-68
2023/01/27 08:48:30;;;;;;;16.30;8.25;;;6.00;54.50;;;;;;6276794;28;20477;-67
2023/01/27 08:51:31;;;;;;;20.45;8.45;;;6.00;54.60;;;;;;6276738;28;20485;-69
2023/01/27 08:54:32;;;;;;;21.00;9.18;;;6.00;54.50;;;;;;6260332;28;20484;-69
2023/01/27 08:57:33;;;;;;;20.63;8.85;;;6.00;54.50;;;;;;6276051;28;20063;-68
2023/01/27 09:00:34;;;;;;;20.20;8.90;;;6.10;54.40;;;;;;6296921;23;20041;-70
2023/01/27 09:03:36;;;;;;;23.70;8.68;;;6.00;54.20;;;;;;6298142;28;20484;-69
2023/01/27 09:06:37;;;;;;;33.85;9.00;;;6.00;54.30;;;;;;6281640;28;20044;-71
2023/01/27 09:09:38;;;;;;;23.10;9.38;;;6.00;54.40;;;;;;6281182;28;20104;-70
2023/01/27 09:12:40;;;;;;;24.02;9.07;;;6.00;54.40;;;;;;6298366;28;20032;-69
2023/01/27 09:15:45;;;;;;;17.15;7.82;;;6.00;54.40;;;;;;6299760;28;20028;-70
2023/01/27 09:18:46;;;;;;;20.45;8.45;;;5.30;54.00;;;;;;6297665;28;20035;-69
2023/01/27 09:21:46;;;;;;;22.90;9.50;;;6.10;54.30;;;;;;6299448;28;20032;-69
2023/01/27 09:24:47;;;;;;;20.08;8.57;;;6.10;54.20;;;;;;6298107;28;20024;-70
2023/01/27 09:27:48;;;;;;;23.00;8.77;;;6.10;54.10;;;;;;6299100;28;20353;-69
2023/01/27 09:30:50;;;;;;;27.20;10.52;;;6.20;54.20;;;;;;6299138;28;20083;-68
2023/01/27 09:33:51;;;;;;;20.88;9.00;;;6.30;54.10;;;;;;6299127;28;20115;-69
2023/01/27 09:36:56;;;;;;;20.15;7.80;;;6.30;54.10;;;;;;6298978;28;20392;-70
2023/01/27 09:40:01;;;;;;;25.73;9.18;;;6.30;54.00;;;;;;6297012;28;20474;-69
2023/01/27 09:43:26;;;;;;;19.80;8.20;;;6.30;53.90;;;;;;6298699;28;20055;-69
2023/01/27 09:47:10;;;;;;;17.77;7.18;;;6.30;53.80;;;;;;6299384;28;20373;-69
2023/01/27 09:50:32;;;;;;;22.17;8.93;;;6.20;53.90;;;;;;6299001;28;20545;-70
2023/01/27 09:53:59;;;;;;;18.73;8.18;;;6.20;54.00;;;;;;6298560;28;20052;-70
2023/01/27 09:57:15;;;;;;;23.58;9.32;;;6.20;54.10;;;;;;6298710;28;20241;-72
2023/01/27 10:00:28;;;;;;;25.65;8.52;;;6.30;54.10;;;;;;6298326;28;20041;-71
2023/01/27 10:03:47;;;;;;;22.27;8.43;;;6.30;54.10;;;;;;6296485;28;20032;-70
2023/01/27 10:07:02;;;;;;;21.30;8.35;;;6.30;54.00;;;;;;6273556;28;20021;-70
2023/01/27 10:10:22;;;;;;;22.98;8.68;;;6.40;54.10;;;;;;6288161;28;20044;-71
2023/01/27 10:13:47;;;;;;;23.52;9.70;;;6.40;53.90;;;;;;6272181;28;20426;-71
2023/01/27 10:17:08;;;;;;;33.78;10.90;;;6.50;53.90;;;;;;6273243;28;20114;-69
2023/01/27 10:20:12;;;;;;;21.02;9.25;;;6.50;53.80;;;;;;6272845;28;20025;-69
2023/01/27 10:23:44;;;;;;;18.88;8.13;;;6.50;53.80;;;;;;6273275;28;20039;-68
2023/01/27 10:26:59;;;;;;;23.13;9.15;;;6.50;53.70;;;;;;6273018;28;20485;-70
2023/01/27 10:30:22;;;;;;;21.58;9.63;;;6.50;53.70;;;;;;6272828;28;20085;-67
2023/01/27 10:33:35;;;;;;;18.15;8.75;;;6.50;53.70;;;;;;6288395;28;20044;-67
2023/01/27 10:37:19;;;;;;;23.58;10.20;;;6.50;53.60;;;;;;6271429;28;20033;-70
2023/01/27 10:40:52;;;;;;;29.25;9.95;;;6.50;53.60;;;;;;6220532;28;20089;-69
2023/01/27 10:44:23;;;;;;;20.25;9.35;;;6.40;53.60;;;;;;6220475;28;20041;-68
2023/01/27 10:48:05;;;;;;;22.02;8.95;;;6.40;53.80;;;;;;6187560;28;20030;-71
2023/01/27 10:51:30;;;;;;;24.52;8.77;;;6.40;53.80;;;;;;6220606;28;20500;-72
2023/01/27 10:55:00;;;;;;;18.75;7.78;;;6.40;53.70;;;;;;6242970;28;20108;-69
2023/01/27 10:58:10;;;;;;;27.48;10.15;;;6.40;53.60;;;;;;6238708;28;20048;-69
2023/01/27 11:01:15;;;;;;;23.63;9.02;;;6.50;53.50;;;;;;6215292;28;20129;-71
2023/01/27 11:04:34;;;;;;;18.80;8.38;;;6.60;53.40;;;;;;6212787;28;20038;-69
2023/01/27 11:07:47;;;;;;;21.73;8.55;;;6.60;53.30;;;;;;6244174;28;20099;-67
2023/01/27 11:14:24;;;;;;;23.58;8.85;;;6.70;53.20;;;;;;6244327;28;20083;-68
2023/01/27 11:17:41;;;;;;;28.02;8.15;;;6.70;53.10;;;;;;6276038;28;20048;-68
2023/01/27 11:20:47;;;;;;;24.15;8.95;;;6.70;53.10;;;;;;6281136;28;20056;-70
2023/01/27 11:23:54;;;;;;;21.92;9.50;;;6.70;53.10;;;;;;6298144;28;20028;-70
2023/01/27 11:27:47;;;;;;;27.50;10.27;;;6.70;53.00;;;;;;6297891;28;20028;-68
2023/01/27 11:30:56;;;;;;;18.95;8.13;;;6.70;53.50;;;;;;6247451;28;20445;-69
2023/01/27 11:34:05;;;;;;;22.85;9.52;;;6.70;53.00;;;;;;6271778;28;20028;-69
2023/01/27 11:37:22;;;;;;;22.40;8.32;;;6.70;52.90;;;;;;6271623;28;20025;-71
2023/01/27 11:40:28;;;;;;;20.25;9.02;;;6.80;52.90;;;;;;6286902;28;20029;-71
2023/01/27 11:43:29;;;;;;;17.85;7.47;;;6.70;52.80;;;;;;6271359;28;20033;-70
2023/01/27 11:46:31;;;;;;;29.35;10.60;;;6.70;52.70;;;;;;6270026;28;20079;-71
2023/01/27 11:49:41;;;;;;;24.58;8.95;;;6.60;52.80;;;;;;6270987;28;20037;-68
2023/01/27 11:52:47;;;;;;;25.48;9.35;;;6.70;52.90;;;;;;6272265;28;20151;-70
2023/01/27 11:56:02;;;;;;;21.13;8.13;;;6.70;52.80;;;;;;6295922;28;20043;-70
2023/01/27 11:59:12;;;;;;;18.58;8.18;;;6.70;52.90;;;;;;6296016;28;20120;-69
2023/01/27 12:02:31;;;;;;;23.02;8.77;;;6.60;52.80;;;;;;6295295;28;20115;-69
2023/01/27 12:05:40;;;;;;;21.27;9.60;;;6.60;52.90;;;;;;6295999;28;20035;-69
2023/01/27 12:08:48;;;;;;;24.48;8.77;;;6.70;52.90;;;;;;6295758;28;20051;-69
2023/01/27 12:12:22;;;;;;;21.70;8.50;;;6.70;52.70;;;;;;6295842;28;20360;-70
2023/01/27 12:15:26;;;;;;;18.70;8.20;;;6.70;52.70;;;;;;6311322;28;20125;-67
2023/01/27 12:18:32;;;;;;;21.95;7.90;;;6.70;52.70;;;;;;6295750;28;20549;-68
2023/01/27 12:21:44;;;;;;;19.73;8.05;;;6.60;52.70;;;;;;6312307;28;20044;-70
2023/01/27 12:24:52;;;;;;;22.02;8.18;;;6.60;52.70;;;;;;6295228;28;20053;-70
2023/01/27 12:28:00;;;;;;;19.23;8.10;;;6.60;52.70;;;;;;6286524;28;20043;-68
2023/01/27 12:31:04;;;;;;;20.17;7.93;;;6.50;53.30;;;;;;6271028;28;20143;-69
2023/01/27 12:34:17;;;;;;;20.65;8.88;;;6.60;52.80;;;;;;6270903;28;20492;-70
2023/01/27 12:37:23;;;;;;;22.50;8.30;;;6.60;52.70;;;;;;6274910;28;20037;-71
2023/01/27 12:40:26;;;;;;;22.15;8.27;;;6.60;52.70;;;;;;6293088;28;20507;-67
2023/01/27 12:43:27;;;;;;;23.15;8.75;;;6.60;52.80;;;;;;6300158;28;20024;-70
2023/01/27 12:46:30;;;;;;;22.63;9.35;;;6.50;52.80;;;;;;6300156;28;20103;-70
2023/01/27 12:49:37;;;;;;;22.00;8.88;;;6.50;52.90;;;;;;6299011;28;20155;-70
2023/01/27 12:52:38;;;;;;;21.30;8.57;;;6.40;52.90;;;;;;6298761;28;20043;-68
2023/01/27 12:56:09;;;;;;;26.48;9.32;;;6.40;52.90;;;;;;6299795;28;20036;-70
2023/01/27 12:59:15;;;;;;;17.58;7.97;;;6.40;53.10;;;;;;6299360;28;20496;-71
2023/01/27 13:02:23;;;;;;;21.60;8.48;;;6.30;53.20;;;;;;6298106;28;20036;-70
2023/01/27 13:05:24;;;;;;;14.52;6.50;;;6.40;53.20;;;;;;6299350;28;20032;-68
2023/01/27 13:08:29;;;;;;;25.88;7.47;;;6.50;53.10;;;;;;6298639;28;20024;-70
2023/01/27 13:11:38;;;;;;;21.77;8.52;;;6.40;53.00;;;;;;6299451;28;20044;-69
2023/01/27 13:14:41;;;;;;;16.25;7.25;;;6.40;53.00;;;;;;6299478;28;20500;-71
2023/01/27 13:17:49;;;;;;;23.40;9.10;;;6.40;53.00;;;;;;6298006;28;20051;-70
2023/01/27 13:21:10;;;;;;;17.73;7.57;;;6.40;53.10;;;;;;6298207;28;20056;-69
2023/01/27 13:24:20;;;;;;;20.75;8.05;;;6.50;53.10;;;;;;6298739;28;20554;-70
2023/01/27 13:27:23;;;;;;;20.30;6.78;;;6.40;53.00;;;;;;6297656;28;20052;-70
2023/01/27 13:30:36;;;;;;;15.98;7.32;;;6.50;53.10;;;;;;6299132;28;20036;-68
2023/01/27 13:33:49;;;;;;;22.52;8.32;;;6.50;53.00;;;;;;6299974;28;20044;-68
2023/01/27 13:37:01;;;;;;;16.08;6.90;;;6.40;53.00;;;;;;6304510;28;20029;-70
2023/01/27 13:40:17;;;;;;;24.70;7.90;;;6.40;53.10;;;;;;6296968;28;20036;-69
2023/01/27 13:43:33;;;;;;;17.23;7.95;;;6.30;53.10;;;;;;6301842;28;20123;-68
2023/01/27 13:46:38;;;;;;;18.63;7.78;;;6.40;53.20;;;;;;6301581;28;20150;-69
2023/01/27 13:49:47;;;;;;;18.65;7.53;;;6.30;53.20;;;;;;6299961;28;20020;-69
2023/01/27 13:52:55;;;;;;;26.58;8.07;;;6.40;53.30;;;;;;6299895;28;20024;-69
2023/01/27 13:56:24;;;;;;;15.95;6.88;;;6.40;53.30;;;;;;6300850;28;20033;-67
2023/01/27 13:59:40;;;;;;;18.17;7.75;;;6.40;53.30;;;;;;6300035;28;20492;-67
2023/01/27 14:03:02;;;;;;;22.33;8.88;;;6.50;53.40;;;;;;6302554;28;20037;-70
2023/01/27 14:06:11;;;;;;;23.65;9.40;;;6.30;53.40;;;;;;6301762;28;20036;-69
2023/01/27 14:09:37;;;;;;;16.25;8.25;;;6.30;53.40;;;;;;6301593;28;20072;-70
2023/01/27 14:12:44;;;;;;;18.02;7.88;;;6.40;53.50;;;;;;6301625;28;20387;-68
2023/01/27 14:15:54;;;;;;;19.95;8.90;;;6.40;53.50;;;;;;6298989;28;20467;-68
2023/01/27 14:19:24;;;;;;;28.45;8.02;;;6.40;53.50;;;;;;6294127;28;20040;-69
2023/01/27 14:22:35;;;;;;;18.30;7.53;;;6.40;53.50;;;;;;6273408;28;20039;-68
2023/01/27 14:25:45;;;;;;;23.02;7.82;;;6.40;53.40;;;;;;6258326;28;20032;-69
2023/01/27 14:28:58;;;;;;;18.70;7.93;;;6.40;53.50;;;;;;6274751;28;20052;-72
2023/01/27 14:32:07;;;;;;;22.00;8.10;;;6.30;53.50;;;;;;6274124;28;20385;-69
2023/01/27 14:35:32;;;;;;;28.63;8.68;;;6.30;53.60;;;;;;6271203;28;20071;-71
2023/01/27 14:38:47;;;;;;;19.83;7.78;;;6.30;53.70;;;;;;6271050;28;20025;-68
2023/01/27 14:42:23;;;;;;;21.02;7.78;;;6.30;53.70;;;;;;6271374;28;20032;-69
2023/01/27 14:45:31;;;;;;;23.50;9.38;;;6.30;53.80;;;;;;6271172;28;20055;-68
2023/01/27 14:48:41;;;;;;;;;;;6.20;53.90;;;;;;6338579;22;20044;-68
2023/01/27 14:51:56;;;;;;;23.90;9.35;;;6.20;54.00;;;;;;6329981;28;19919;-69
2023/01/27 14:55:05;;;;;;;21.52;9.23;;;6.10;53.80;;;;;;6347834;28;20027;-70
2023/01/27 14:58:37;;;;;;;21.20;8.82;;;6.10;54.00;;;;;;6347475;28;20032;-69
2023/01/27 15:01:43;;;;;;;22.65;8.93;;;6.10;54.10;;;;;;6332520;28;20024;-69
2023/01/27 15:04:50;;;;;;;16.15;7.32;;;6.10;54.70;;;;;;6351040;28;20120;-69
2023/01/27 15:11:29;;;;;;;22.55;8.80;;;6.10;54.10;;;;;;6200712;28;20050;-70
2023/01/27 15:14:59;;;;;;;15.60;7.32;;;6.10;54.20;;;;;;6204505;28;20018;-67
2023/01/27 15:18:24;;;;;;;23.13;9.95;;;6.10;54.20;;;;;;6175972;28;20034;-69
2023/01/27 15:21:25;;;;;;;14.90;7.57;;;6.10;54.30;;;;;;6176804;28;20054;-69
2023/01/27 15:24:44;;;;;;;21.70;8.48;;;6.00;54.80;;;;;;6177981;28;20037;-70
2023/01/27 15:27:47;;;;;;;19.73;9.43;;;6.00;54.30;;;;;;6167218;28;20077;-68
2023/01/27 15:31:14;;;;;;;28.77;9.20;;;6.10;54.40;;;;;;6198919;28;20045;-71
2023/01/27 15:34:21;;;;;;;19.98;8.50;;;6.10;54.40;;;;;;6193810;28;20046;-71
2023/01/27 15:37:29;;;;;;;20.10;9.15;;;6.00;54.40;;;;;;6199213;28;20038;-68
2023/01/27 15:40:52;;;;;;;30.77;9.43;;;6.00;54.40;;;;;;6183286;28;20034;-71
2023/01/27 15:44:24;;;;;;;31.55;8.52;;;6.10;54.40;;;;;;6197860;28;20026;-71
2023/01/27 15:47:29;;;;;;;12.15;6.63;;;6.10;54.30;;;;;;6180271;28;20049;-70
2023/01/27 15:50:36;;;;;;;15.43;8.18;;;6.20;54.30;;;;;;6198887;28;20018;-71
2023/01/27 15:53:47;;;;;;;22.23;8.95;;;6.20;54.20;;;;;;6199895;28;20030;-69
2023/01/27 15:56:53;;;;;;;18.05;8.57;;;6.10;54.20;;;;;;6166147;28;20038;-70
2023/01/27 16:00:00;;;;;;;14.27;6.43;;;6.20;54.30;;;;;;6197504;28;20473;-69
2023/01/27 16:03:03;;;;;;;19.10;7.20;;;6.20;54.20;;;;;;6197594;28;20077;-68
2023/01/27 16:06:11;;;;;;;17.00;8.02;;;6.20;54.20;;;;;;6175516;28;20039;-68
2023/01/27 16:09:33;;;;;;;18.85;7.47;;;6.20;54.20;;;;;;6173025;28;20058;-69
2023/01/27 16:12:43;;;;;;;25.52;8.30;;;6.20;54.30;;;;;;6190598;28;20037;-69
2023/01/27 16:15:45;;;;;;;16.77;7.32;;;6.20;54.30;;;;;;6184987;28;20031;-70
2023/01/27 16:19:00;;;;;;;22.35;7.78;;;6.20;54.30;;;;;;6211968;23;20041;-71
2023/01/27 16:22:11;;;;;;;16.08;7.22;;;6.20;54.80;;;;;;6250546;28;20565;-68
2023/01/27 16:25:31;;;;;;;19.20;8.52;;;6.20;54.30;;;;;;6251434;28;20037;-70
2023/01/27 16:28:36;;;;;;;18.95;8.32;;;6.10;54.30;;;;;;6257265;28;20393;-68
2023/01/27 16:31:39;;;;;;;17.40;7.97;;;6.10;54.40;;;;;;6277526;28;20497;-69
2023/01/27 16:34:48;;;;;;;24.65;9.32;;;6.10;54.40;;;;;;6259427;28;20025;-67
2023/01/27 16:38:06;;;;;;;19.42;8.43;;;6.10;54.50;;;;;;6275116;28;20141;-68
2023/01/27 16:41:29;;;;;;;19.48;7.63;;;6.10;54.60;;;;;;6258913;28;20074;-68
2023/01/27 16:44:46;;;;;;;21.90;8.73;;;6.00;54.60;;;;;;6274523;28;20094;-71
2023/01/27 16:48:04;;;;;;;20.15;7.63;;;6.00;54.80;;;;;;6273840;28;20025;-69
2023/01/27 16:51:08;;;;;;;14.55;7.70;;;6.00;55.00;;;;;;6273998;28;20061;-70